sensor_id;sensor_type;location;lat;lon;timestamp;P1;durP1;ratioP1;P2;durP2;ratioP2
20497;SDS011;10407;53.238;10.448;2022-12-20T00:02:11;19.23;;;11.90;;
20497;SDS011;10407;53.238;10.448;2022-12-20T00:04:38;23.90;;;12.60;;
20497;SDS011;10407;53.238;10.448;2022-12-20T00:07:06;21.77;;;11.83;;
20497;SDS011;10407;53.238;10.448;2022-12-20T00:09:34;22.47;;;13.57;;
20497;SDS011;10407;53.238;10.448;2022-12-20T00:12:02;20.77;;;11.87;;
20497;SDS011;10407;53.238;10.448;2022-12-20T00:14:29;32.10;;;13.60;;
20497;SDS011;10407;53.238;10.448;2022-12-20T00:16:57;21.50;;;12.43;;
20497;SDS011;10407;53.238;10.448;2022-12-20T00:19:24;24.43;;;13.00;;
20497;SDS011;10407;53.238;10.448;2022-12-20T00:21:52;23.43;;;12.67;;
20497;SDS011;10407;53.238;10.448;2022-12-20T00:24:20;20.47;;;12.80;;
20497;SDS011;10407;53.238;10.448;2022-12-20T00:26:47;26.10;;;13.60;;
20497;SDS011;10407;53.238;10.448;2022-12-20T00:29:15;23.73;;;11.77;;
20497;SDS011;10407;53.238;10.448;2022-12-20T00:31:42;21.27;;;12.80;;
20497;SDS011;10407;53.238;10.448;2022-12-20T00:34:10;21.67;;;11.67;;
20497;SDS011;10407;53.238;10.448;2022-12-20T00:36:38;23.33;;;12.03;;
20497;SDS011;10407;53.238;10.448;2022-12-20T00:39:06;23.40;;;12.80;;
20497;SDS011;10407;53.238;10.448;2022-12-20T00:41:33;25.10;;;12.83;;
20497;SDS011;10407;53.238;10.448;2022-12-20T00:44:01;20.13;;;12.20;;
20497;SDS011;10407;53.238;10.448;2022-12-20T00:46:30;25.70;;;12.30;;
20497;SDS011;10407;53.238;10.448;2022-12-20T00:48:59;25.60;;;12.87;;
20497;SDS011;10407;53.238;10.448;2022-12-20T00:51:27;23.13;;;12.67;;
20497;SDS011;10407;53.238;10.448;2022-12-20T00:53:57;27.73;;;14.10;;
20497;SDS011;10407;53.238;10.448;2022-12-20T00:56:24;23.70;;;12.17;;
20497;SDS011;10407;53.238;10.448;2022-12-20T00:58:52;20.90;;;11.90;;
20497;SDS011;10407;53.238;10.448;2022-12-20T01:01:22;20.63;;;12.13;;
20497;SDS011;10407;53.238;10.448;2022-12-20T01:03:51;21.63;;;12.30;;
20497;SDS011;10407;53.238;10.448;2022-12-20T01:06:19;23.03;;;12.67;;
20497;SDS011;10407;53.238;10.448;2022-12-20T01:08:48;24.10;;;12.40;;
20497;SDS011;10407;53.238;10.448;2022-12-20T01:11:20;25.03;;;12.80;;
20497;SDS011;10407;53.238;10.448;2022-12-20T01:13:47;24.13;;;12.63;;
20497;SDS011;10407;53.238;10.448;2022-12-20T01:16:25;24.20;;;13.40;;
20497;SDS011;10407;53.238;10.448;2022-12-20T01:18:50;22.77;;;13.73;;
20497;SDS011;10407;53.238;10.448;2022-12-20T01:21:18;22.80;;;13.00;;
20497;SDS011;10407;53.238;10.448;2022-12-20T01:23:47;23.40;;;12.70;;
20497;SDS011;10407;53.238;10.448;2022-12-20T01:26:16;25.73;;;12.03;;
20497;SDS011;10407;53.238;10.448;2022-12-20T01:28:45;24.20;;;12.67;;
20497;SDS011;10407;53.238;10.448;2022-12-20T01:31:15;24.43;;;14.17;;
20497;SDS011;10407;53.238;10.448;2022-12-20T01:33:44;21.33;;;12.23;;
20497;SDS011;10407;53.238;10.448;2022-12-20T01:36:18;22.30;;;12.43;;
20497;SDS011;10407;53.238;10.448;2022-12-20T01:38:43;23.70;;;13.47;;
20497;SDS011;10407;53.238;10.448;2022-12-20T01:41:20;25.97;;;13.43;;
20497;SDS011;10407;53.238;10.448;2022-12-20T01:43:45;26.50;;;12.83;;
20497;SDS011;10407;53.238;10.448;2022-12-20T01:46:21;22.40;;;12.33;;
20497;SDS011;10407;53.238;10.448;2022-12-20T01:48:59;21.87;;;12.00;;
20497;SDS011;10407;53.238;10.448;2022-12-20T01:51:24;25.23;;;13.00;;
20497;SDS011;10407;53.238;10.448;2022-12-20T01:53:55;25.00;;;12.83;;
20497;SDS011;10407;53.238;10.448;2022-12-20T01:56:24;22.97;;;12.30;;
20497;SDS011;10407;53.238;10.448;2022-12-20T01:58:52;26.90;;;13.07;;
20497;SDS011;10407;53.238;10.448;2022-12-20T02:01:21;27.50;;;12.47;;
20497;SDS011;10407;53.238;10.448;2022-12-20T02:03:51;21.60;;;11.63;;
20497;SDS011;10407;53.238;10.448;2022-12-20T02:06:21;25.57;;;12.80;;
20497;SDS011;10407;53.238;10.448;2022-12-20T02:08:50;27.80;;;12.67;;
20497;SDS011;10407;53.238;10.448;2022-12-20T02:17:11;21.97;;;12.30;;
20497;SDS011;10407;53.238;10.448;2022-12-20T02:25:30;23.83;;;12.47;;
20497;SDS011;10407;53.238;10.448;2022-12-20T02:28:11;23.03;;;12.47;;
20497;SDS011;10407;53.238;10.448;2022-12-20T02:30:46;26.60;;;12.63;;
20497;SDS011;10407;53.238;10.448;2022-12-20T02:33:16;27.80;;;14.13;;
20497;SDS011;10407;53.238;10.448;2022-12-20T02:35:47;23.97;;;12.70;;
20497;SDS011;10407;53.238;10.448;2022-12-20T02:40:59;22.90;;;12.90;;
20497;SDS011;10407;53.238;10.448;2022-12-20T02:43:28;22.50;;;13.67;;
20497;SDS011;10407;53.238;10.448;2022-12-20T02:46:16;26.43;;;13.30;;
20497;SDS011;10407;53.238;10.448;2022-12-20T02:48:46;23.27;;;13.20;;
20497;SDS011;10407;53.238;10.448;2022-12-20T02:51:15;26.30;;;13.00;;
20497;SDS011;10407;53.238;10.448;2022-12-20T02:53:45;24.47;;;13.07;;
20497;SDS011;10407;53.238;10.448;2022-12-20T02:56:15;21.60;;;12.27;;
20497;SDS011;10407;53.238;10.448;2022-12-20T03:01:25;20.20;;;12.63;;
20497;SDS011;10407;53.238;10.448;2022-12-20T03:03:54;30.90;;;13.93;;
20497;SDS011;10407;53.238;10.448;2022-12-20T03:06:24;25.13;;;12.60;;
20497;SDS011;10407;53.238;10.448;2022-12-20T03:08:52;27.80;;;14.70;;
20497;SDS011;10407;53.238;10.448;2022-12-20T03:11:19;25.00;;;13.10;;
20497;SDS011;10407;53.238;10.448;2022-12-20T03:13:47;25.47;;;12.77;;
20497;SDS011;10407;53.238;10.448;2022-12-20T03:16:15;18.30;;;11.97;;
20497;SDS011;10407;53.238;10.448;2022-12-20T03:18:42;25.43;;;12.93;;
20497;SDS011;10407;53.238;10.448;2022-12-20T03:21:11;22.97;;;12.77;;
20497;SDS011;10407;53.238;10.448;2022-12-20T03:23:38;24.27;;;12.77;;
20497;SDS011;10407;53.238;10.448;2022-12-20T03:26:06;22.70;;;12.93;;
20497;SDS011;10407;53.238;10.448;2022-12-20T03:28:33;23.10;;;13.70;;
20497;SDS011;10407;53.238;10.448;2022-12-20T03:31:01;22.37;;;12.37;;
20497;SDS011;10407;53.238;10.448;2022-12-20T03:33:28;22.47;;;12.77;;
20497;SDS011;10407;53.238;10.448;2022-12-20T03:35:56;20.20;;;12.47;;
20497;SDS011;10407;53.238;10.448;2022-12-20T03:38:23;23.50;;;12.63;;
20497;SDS011;10407;53.238;10.448;2022-12-20T03:40:51;24.97;;;12.27;;
20497;SDS011;10407;53.238;10.448;2022-12-20T03:43:18;20.27;;;12.03;;
20497;SDS011;10407;53.238;10.448;2022-12-20T03:45:46;25.43;;;13.43;;
20497;SDS011;10407;53.238;10.448;2022-12-20T03:48:13;24.03;;;12.60;;
20497;SDS011;10407;53.238;10.448;2022-12-20T03:50:41;23.87;;;12.70;;
20497;SDS011;10407;53.238;10.448;2022-12-20T03:53:09;26.13;;;12.70;;
20497;SDS011;10407;53.238;10.448;2022-12-20T03:55:36;29.10;;;13.07;;
20497;SDS011;10407;53.238;10.448;2022-12-20T03:58:04;19.53;;;11.27;;
20497;SDS011;10407;53.238;10.448;2022-12-20T04:00:31;20.80;;;11.50;;
20497;SDS011;10407;53.238;10.448;2022-12-20T04:02:59;22.70;;;12.40;;
20497;SDS011;10407;53.238;10.448;2022-12-20T04:05:26;22.13;;;11.87;;
20497;SDS011;10407;53.238;10.448;2022-12-20T04:07:54;18.70;;;10.37;;
20497;SDS011;10407;53.238;10.448;2022-12-20T04:10:21;22.03;;;12.63;;
20497;SDS011;10407;53.238;10.448;2022-12-20T04:12:49;20.53;;;10.63;;
20497;SDS011;10407;53.238;10.448;2022-12-20T04:15:17;18.10;;;10.83;;
20497;SDS011;10407;53.238;10.448;2022-12-20T04:17:44;22.80;;;11.80;;
20497;SDS011;10407;53.238;10.448;2022-12-20T04:20:13;18.47;;;11.23;;
20497;SDS011;10407;53.238;10.448;2022-12-20T04:22:45;26.53;;;13.70;;
20497;SDS011;10407;53.238;10.448;2022-12-20T04:25:15;19.20;;;10.90;;
20497;SDS011;10407;53.238;10.448;2022-12-20T04:27:44;16.30;;;10.50;;
20497;SDS011;10407;53.238;10.448;2022-12-20T04:30:12;22.40;;;11.87;;
20497;SDS011;10407;53.238;10.448;2022-12-20T04:32:40;22.07;;;11.47;;
20497;SDS011;10407;53.238;10.448;2022-12-20T04:35:07;26.60;;;12.80;;
20497;SDS011;10407;53.238;10.448;2022-12-20T04:37:35;19.73;;;11.73;;
20497;SDS011;10407;53.238;10.448;2022-12-20T04:40:03;23.60;;;10.53;;
20497;SDS011;10407;53.238;10.448;2022-12-20T04:42:31;20.40;;;12.50;;
20497;SDS011;10407;53.238;10.448;2022-12-20T04:44:59;23.93;;;12.10;;
20497;SDS011;10407;53.238;10.448;2022-12-20T04:47:26;25.20;;;12.33;;
20497;SDS011;10407;53.238;10.448;2022-12-20T04:49:54;19.17;;;11.43;;
20497;SDS011;10407;53.238;10.448;2022-12-20T04:52:21;24.93;;;10.60;;
20497;SDS011;10407;53.238;10.448;2022-12-20T04:55:07;23.53;;;11.50;;
20497;SDS011;10407;53.238;10.448;2022-12-20T04:57:35;21.63;;;11.43;;
20497;SDS011;10407;53.238;10.448;2022-12-20T05:00:02;21.17;;;11.87;;
20497;SDS011;10407;53.238;10.448;2022-12-20T05:02:30;23.50;;;11.53;;
20497;SDS011;10407;53.238;10.448;2022-12-20T05:04:58;24.00;;;12.00;;
20497;SDS011;10407;53.238;10.448;2022-12-20T05:07:25;20.47;;;11.67;;
20497;SDS011;10407;53.238;10.448;2022-12-20T05:09:53;20.50;;;12.63;;
20497;SDS011;10407;53.238;10.448;2022-12-20T05:12:20;23.80;;;12.93;;
20497;SDS011;10407;53.238;10.448;2022-12-20T05:14:48;24.00;;;11.77;;
20497;SDS011;10407;53.238;10.448;2022-12-20T05:17:15;26.93;;;11.40;;
20497;SDS011;10407;53.238;10.448;2022-12-20T05:19:43;21.77;;;11.10;;
20497;SDS011;10407;53.238;10.448;2022-12-20T05:22:11;22.03;;;12.13;;
20497;SDS011;10407;53.238;10.448;2022-12-20T05:24:52;22.67;;;11.50;;
20497;SDS011;10407;53.238;10.448;2022-12-20T05:27:36;20.03;;;11.13;;
20497;SDS011;10407;53.238;10.448;2022-12-20T05:30:04;23.13;;;11.80;;
20497;SDS011;10407;53.238;10.448;2022-12-20T05:32:32;19.70;;;11.87;;
20497;SDS011;10407;53.238;10.448;2022-12-20T05:34:59;31.37;;;12.80;;
20497;SDS011;10407;53.238;10.448;2022-12-20T05:37:27;23.83;;;12.27;;
20497;SDS011;10407;53.238;10.448;2022-12-20T05:39:55;22.70;;;12.20;;
20497;SDS011;10407;53.238;10.448;2022-12-20T05:42:22;27.83;;;12.83;;
20497;SDS011;10407;53.238;10.448;2022-12-20T05:44:50;22.37;;;12.57;;
20497;SDS011;10407;53.238;10.448;2022-12-20T05:47:17;23.67;;;12.40;;
20497;SDS011;10407;53.238;10.448;2022-12-20T05:49:45;23.73;;;12.50;;
20497;SDS011;10407;53.238;10.448;2022-12-20T05:52:12;25.03;;;13.13;;
20497;SDS011;10407;53.238;10.448;2022-12-20T05:54:41;27.77;;;12.57;;
20497;SDS011;10407;53.238;10.448;2022-12-20T05:57:09;25.03;;;13.37;;
20497;SDS011;10407;53.238;10.448;2022-12-20T05:59:36;20.17;;;11.97;;
20497;SDS011;10407;53.238;10.448;2022-12-20T06:02:04;21.60;;;13.27;;
20497;SDS011;10407;53.238;10.448;2022-12-20T06:04:31;22.80;;;14.03;;
20497;SDS011;10407;53.238;10.448;2022-12-20T06:07:00;26.50;;;13.50;;
20497;SDS011;10407;53.238;10.448;2022-12-20T06:09:27;20.93;;;12.00;;
20497;SDS011;10407;53.238;10.448;2022-12-20T06:11:55;24.53;;;14.30;;
20497;SDS011;10407;53.238;10.448;2022-12-20T06:14:22;29.33;;;15.07;;
20497;SDS011;10407;53.238;10.448;2022-12-20T06:16:50;23.03;;;12.70;;
20497;SDS011;10407;53.238;10.448;2022-12-20T06:19:17;25.77;;;12.87;;
20497;SDS011;10407;53.238;10.448;2022-12-20T06:21:45;33.37;;;14.70;;
20497;SDS011;10407;53.238;10.448;2022-12-20T06:24:12;26.90;;;12.93;;
20497;SDS011;10407;53.238;10.448;2022-12-20T06:26:40;27.23;;;13.43;;
20497;SDS011;10407;53.238;10.448;2022-12-20T06:29:08;27.83;;;14.00;;
20497;SDS011;10407;53.238;10.448;2022-12-20T06:31:37;27.03;;;14.40;;
20497;SDS011;10407;53.238;10.448;2022-12-20T06:34:05;26.83;;;14.70;;
20497;SDS011;10407;53.238;10.448;2022-12-20T06:36:33;21.80;;;14.50;;
20497;SDS011;10407;53.238;10.448;2022-12-20T06:39:01;25.73;;;14.67;;
20497;SDS011;10407;53.238;10.448;2022-12-20T06:41:28;23.60;;;13.50;;
20497;SDS011;10407;53.238;10.448;2022-12-20T06:43:56;26.40;;;15.10;;
20497;SDS011;10407;53.238;10.448;2022-12-20T06:46:24;29.00;;;14.87;;
20497;SDS011;10407;53.238;10.448;2022-12-20T06:48:52;22.90;;;12.83;;
20497;SDS011;10407;53.238;10.448;2022-12-20T06:51:24;22.37;;;12.70;;
20497;SDS011;10407;53.238;10.448;2022-12-20T06:53:51;23.83;;;14.00;;
20497;SDS011;10407;53.238;10.448;2022-12-20T06:56:19;23.90;;;13.73;;
20497;SDS011;10407;53.238;10.448;2022-12-20T06:58:46;24.40;;;13.83;;
20497;SDS011;10407;53.238;10.448;2022-12-20T07:01:14;23.67;;;13.50;;
20497;SDS011;10407;53.238;10.448;2022-12-20T07:03:41;22.20;;;13.50;;
20497;SDS011;10407;53.238;10.448;2022-12-20T07:06:09;29.07;;;13.50;;
20497;SDS011;10407;53.238;10.448;2022-12-20T07:08:36;26.20;;;14.33;;
20497;SDS011;10407;53.238;10.448;2022-12-20T07:11:09;22.53;;;13.70;;
20497;SDS011;10407;53.238;10.448;2022-12-20T07:13:33;34.27;;;16.30;;
20497;SDS011;10407;53.238;10.448;2022-12-20T07:16:01;23.80;;;13.60;;
20497;SDS011;10407;53.238;10.448;2022-12-20T07:18:29;23.40;;;14.17;;
20497;SDS011;10407;53.238;10.448;2022-12-20T07:21:00;27.27;;;15.17;;
20497;SDS011;10407;53.238;10.448;2022-12-20T07:23:29;26.77;;;14.17;;
20497;SDS011;10407;53.238;10.448;2022-12-20T07:25:57;24.63;;;13.63;;
20497;SDS011;10407;53.238;10.448;2022-12-20T07:28:26;22.03;;;13.53;;
20497;SDS011;10407;53.238;10.448;2022-12-20T07:30:58;23.17;;;14.17;;
20497;SDS011;10407;53.238;10.448;2022-12-20T07:33:25;27.60;;;14.60;;
20497;SDS011;10407;53.238;10.448;2022-12-20T07:35:58;25.10;;;13.27;;
20497;SDS011;10407;53.238;10.448;2022-12-20T07:38:28;27.43;;;14.37;;
20497;SDS011;10407;53.238;10.448;2022-12-20T07:40:55;25.20;;;14.80;;
20497;SDS011;10407;53.238;10.448;2022-12-20T07:43:23;26.13;;;15.20;;
20497;SDS011;10407;53.238;10.448;2022-12-20T07:45:56;25.57;;;13.70;;
20497;SDS011;10407;53.238;10.448;2022-12-20T07:48:24;30.90;;;14.20;;
20497;SDS011;10407;53.238;10.448;2022-12-20T07:50:53;21.90;;;12.70;;
20497;SDS011;10407;53.238;10.448;2022-12-20T07:53:22;22.30;;;12.40;;
20497;SDS011;10407;53.238;10.448;2022-12-20T07:55:50;26.73;;;12.63;;
20497;SDS011;10407;53.238;10.448;2022-12-20T07:58:20;25.90;;;14.23;;
20497;SDS011;10407;53.238;10.448;2022-12-20T08:00:48;26.03;;;14.00;;
20497;SDS011;10407;53.238;10.448;2022-12-20T08:03:18;23.20;;;12.27;;
20497;SDS011;10407;53.238;10.448;2022-12-20T08:05:51;21.57;;;13.10;;
20497;SDS011;10407;53.238;10.448;2022-12-20T08:08:21;22.83;;;12.50;;
20497;SDS011;10407;53.238;10.448;2022-12-20T08:10:50;30.30;;;12.00;;
20497;SDS011;10407;53.238;10.448;2022-12-20T08:13:17;22.87;;;12.47;;
20497;SDS011;10407;53.238;10.448;2022-12-20T08:15:45;24.87;;;12.87;;
20497;SDS011;10407;53.238;10.448;2022-12-20T08:18:12;21.67;;;11.80;;
20497;SDS011;10407;53.238;10.448;2022-12-20T08:20:41;17.83;;;11.30;;
20497;SDS011;10407;53.238;10.448;2022-12-20T08:23:08;19.90;;;10.90;;
20497;SDS011;10407;53.238;10.448;2022-12-20T08:25:35;21.33;;;11.40;;
20497;SDS011;10407;53.238;10.448;2022-12-20T08:28:03;25.77;;;11.93;;
20497;SDS011;10407;53.238;10.448;2022-12-20T08:30:31;18.90;;;11.47;;
20497;SDS011;10407;53.238;10.448;2022-12-20T08:32:58;23.07;;;12.83;;
20497;SDS011;10407;53.238;10.448;2022-12-20T08:35:26;17.53;;;11.77;;
20497;SDS011;10407;53.238;10.448;2022-12-20T08:37:53;19.53;;;11.13;;
20497;SDS011;10407;53.238;10.448;2022-12-20T08:40:21;20.37;;;10.80;;
20497;SDS011;10407;53.238;10.448;2022-12-20T08:42:49;18.23;;;12.10;;
20497;SDS011;10407;53.238;10.448;2022-12-20T08:45:16;19.67;;;10.70;;
20497;SDS011;10407;53.238;10.448;2022-12-20T08:47:44;21.27;;;11.30;;
20497;SDS011;10407;53.238;10.448;2022-12-20T08:50:12;19.30;;;11.07;;
20497;SDS011;10407;53.238;10.448;2022-12-20T08:52:40;19.30;;;10.83;;
20497;SDS011;10407;53.238;10.448;2022-12-20T08:55:07;19.53;;;10.87;;
20497;SDS011;10407;53.238;10.448;2022-12-20T08:57:35;23.67;;;11.20;;
20497;SDS011;10407;53.238;10.448;2022-12-20T09:00:03;22.57;;;11.17;;
20497;SDS011;10407;53.238;10.448;2022-12-20T09:02:30;18.70;;;10.33;;
20497;SDS011;10407;53.238;10.448;2022-12-20T09:04:58;17.40;;;10.33;;
20497;SDS011;10407;53.238;10.448;2022-12-20T09:07:25;14.77;;;10.63;;
20497;SDS011;10407;53.238;10.448;2022-12-20T09:09:54;18.30;;;10.40;;
20497;SDS011;10407;53.238;10.448;2022-12-20T09:12:21;18.53;;;9.93;;
20497;SDS011;10407;53.238;10.448;2022-12-20T09:14:49;17.70;;;10.57;;
20497;SDS011;10407;53.238;10.448;2022-12-20T09:17:16;25.73;;;10.70;;
20497;SDS011;10407;53.238;10.448;2022-12-20T09:19:44;19.77;;;11.30;;
20497;SDS011;10407;53.238;10.448;2022-12-20T09:22:11;18.70;;;10.60;;
20497;SDS011;10407;53.238;10.448;2022-12-20T09:24:39;17.23;;;9.87;;
20497;SDS011;10407;53.238;10.448;2022-12-20T09:27:06;22.27;;;10.27;;
20497;SDS011;10407;53.238;10.448;2022-12-20T09:29:34;20.40;;;10.63;;
20497;SDS011;10407;53.238;10.448;2022-12-20T09:32:01;17.13;;;10.20;;
20497;SDS011;10407;53.238;10.448;2022-12-20T09:34:29;14.37;;;9.37;;
20497;SDS011;10407;53.238;10.448;2022-12-20T09:36:57;19.30;;;11.20;;
20497;SDS011;10407;53.238;10.448;2022-12-20T09:39:24;18.30;;;9.37;;
20497;SDS011;10407;53.238;10.448;2022-12-20T09:41:52;16.83;;;9.47;;
20497;SDS011;10407;53.238;10.448;2022-12-20T09:47:02;19.40;;;9.60;;
20497;SDS011;10407;53.238;10.448;2022-12-20T09:49:38;17.60;;;9.00;;
20497;SDS011;10407;53.238;10.448;2022-12-20T09:58:00;13.37;;;8.67;;
20497;SDS011;10407;53.238;10.448;2022-12-20T10:00:28;14.07;;;9.10;;
20497;SDS011;10407;53.238;10.448;2022-12-20T10:02:57;15.37;;;8.20;;
20497;SDS011;10407;53.238;10.448;2022-12-20T10:05:32;17.50;;;10.10;;
20497;SDS011;10407;53.238;10.448;2022-12-20T10:08:22;14.77;;;8.50;;
20497;SDS011;10407;53.238;10.448;2022-12-20T10:19:16;17.70;;;8.10;;
20497;SDS011;10407;53.238;10.448;2022-12-20T10:24:50;13.27;;;9.03;;
20497;SDS011;10407;53.238;10.448;2022-12-20T10:27:20;12.20;;;8.30;;
20497;SDS011;10407;53.238;10.448;2022-12-20T10:29:48;15.30;;;9.13;;
20497;SDS011;10407;53.238;10.448;2022-12-20T10:32:18;15.70;;;9.40;;
20497;SDS011;10407;53.238;10.448;2022-12-20T10:34:51;14.70;;;8.87;;
20497;SDS011;10407;53.238;10.448;2022-12-20T10:37:24;14.27;;;8.17;;
20497;SDS011;10407;53.238;10.448;2022-12-20T10:39:52;15.63;;;8.30;;
20497;SDS011;10407;53.238;10.448;2022-12-20T10:42:24;14.73;;;9.17;;
20497;SDS011;10407;53.238;10.448;2022-12-20T10:44:59;12.20;;;8.30;;
20497;SDS011;10407;53.238;10.448;2022-12-20T10:47:35;15.50;;;8.70;;
20497;SDS011;10407;53.238;10.448;2022-12-20T10:50:07;19.30;;;9.70;;
20497;SDS011;10407;53.238;10.448;2022-12-20T10:52:36;17.20;;;9.60;;
20497;SDS011;10407;53.238;10.448;2022-12-20T10:55:18;20.47;;;10.80;;
20497;SDS011;10407;53.238;10.448;2022-12-20T10:57:34;18.87;;;10.80;;
20497;SDS011;10407;53.238;10.448;2022-12-20T11:00:05;20.20;;;9.77;;
20497;SDS011;10407;53.238;10.448;2022-12-20T11:02:36;18.90;;;8.73;;
20497;SDS011;10407;53.238;10.448;2022-12-20T11:10:23;14.63;;;8.40;;
20497;SDS011;10407;53.238;10.448;2022-12-20T11:12:59;18.40;;;8.90;;
20497;SDS011;10407;53.238;10.448;2022-12-20T11:15:29;14.97;;;8.33;;
20497;SDS011;10407;53.238;10.448;2022-12-20T11:18:09;18.13;;;8.63;;
20497;SDS011;10407;53.238;10.448;2022-12-20T11:20:56;15.60;;;9.00;;
20497;SDS011;10407;53.238;10.448;2022-12-20T11:23:33;14.10;;;8.03;;
20497;SDS011;10407;53.238;10.448;2022-12-20T11:29:02;10.13;;;5.63;;
20497;SDS011;10407;53.238;10.448;2022-12-20T11:31:42;11.60;;;7.23;;
20497;SDS011;10407;53.238;10.448;2022-12-20T11:37:10;12.47;;;7.30;;
20497;SDS011;10407;53.238;10.448;2022-12-20T11:45:11;33.87;;;18.20;;
20497;SDS011;10407;53.238;10.448;2022-12-20T11:50:37;13.27;;;7.07;;
20497;SDS011;10407;53.238;10.448;2022-12-20T11:53:22;10.63;;;6.60;;
20497;SDS011;10407;53.238;10.448;2022-12-20T11:56:14;10.90;;;6.63;;
20497;SDS011;10407;53.238;10.448;2022-12-20T12:01:30;10.80;;;6.63;;
20497;SDS011;10407;53.238;10.448;2022-12-20T12:04:03;10.17;;;6.70;;
20497;SDS011;10407;53.238;10.448;2022-12-20T12:06:50;12.53;;;7.30;;
20497;SDS011;10407;53.238;10.448;2022-12-20T12:09:26;8.17;;;6.07;;
20497;SDS011;10407;53.238;10.448;2022-12-20T12:12:01;10.50;;;6.33;;
20497;SDS011;10407;53.238;10.448;2022-12-20T12:14:54;11.57;;;6.67;;
20497;SDS011;10407;53.238;10.448;2022-12-20T12:17:28;11.10;;;6.60;;
20497;SDS011;10407;53.238;10.448;2022-12-20T12:20:01;8.73;;;5.70;;
20497;SDS011;10407;53.238;10.448;2022-12-20T12:22:32;11.70;;;6.50;;
20497;SDS011;10407;53.238;10.448;2022-12-20T12:25:03;10.87;;;6.17;;
20497;SDS011;10407;53.238;10.448;2022-12-20T12:27:33;13.80;;;7.63;;
20497;SDS011;10407;53.238;10.448;2022-12-20T12:30:01;12.43;;;5.90;;
20497;SDS011;10407;53.238;10.448;2022-12-20T12:32:35;10.80;;;6.80;;
20497;SDS011;10407;53.238;10.448;2022-12-20T12:45:48;18.80;;;6.20;;
20497;SDS011;10407;53.238;10.448;2022-12-20T12:51:04;22.23;;;9.93;;
20497;SDS011;10407;53.238;10.448;2022-12-20T12:53:34;11.03;;;6.20;;
20497;SDS011;10407;53.238;10.448;2022-12-20T12:56:44;10.57;;;6.10;;
20497;SDS011;10407;53.238;10.448;2022-12-20T13:04:28;9.37;;;5.37;;
20497;SDS011;10407;53.238;10.448;2022-12-20T13:06:55;9.10;;;5.00;;
20497;SDS011;10407;53.238;10.448;2022-12-20T13:09:37;9.80;;;6.00;;
20497;SDS011;10407;53.238;10.448;2022-12-20T13:11:57;12.33;;;6.50;;
20497;SDS011;10407;53.238;10.448;2022-12-20T13:19:36;15.87;;;8.07;;
20497;SDS011;10407;53.238;10.448;2022-12-20T13:24:49;18.50;;;7.87;;
20497;SDS011;10407;53.238;10.448;2022-12-20T13:27:24;10.40;;;6.60;;
20497;SDS011;10407;53.238;10.448;2022-12-20T13:37:55;7.67;;;4.97;;
20497;SDS011;10407;53.238;10.448;2022-12-20T13:43:35;9.30;;;5.23;;
20497;SDS011;10407;53.238;10.448;2022-12-20T13:46:03;10.57;;;5.23;;
20497;SDS011;10407;53.238;10.448;2022-12-20T13:51:20;9.37;;;5.50;;
20497;SDS011;10407;53.238;10.448;2022-12-20T13:53:56;6.80;;;4.63;;
20497;SDS011;10407;53.238;10.448;2022-12-20T13:59:44;11.00;;;5.57;;
20497;SDS011;10407;53.238;10.448;2022-12-20T14:01:36;10.77;;;5.73;;
20497;SDS011;10407;53.238;10.448;2022-12-20T14:04:08;13.13;;;5.30;;
20497;SDS011;10407;53.238;10.448;2022-12-20T14:06:35;7.87;;;5.73;;
20497;SDS011;10407;53.238;10.448;2022-12-20T14:09:03;7.13;;;5.03;;
20497;SDS011;10407;53.238;10.448;2022-12-20T14:11:32;7.30;;;5.00;;
20497;SDS011;10407;53.238;10.448;2022-12-20T14:14:02;8.07;;;5.50;;
20497;SDS011;10407;53.238;10.448;2022-12-20T14:16:31;7.20;;;4.90;;
20497;SDS011;10407;53.238;10.448;2022-12-20T14:19:02;10.90;;;5.50;;
20497;SDS011;10407;53.238;10.448;2022-12-20T14:21:35;11.10;;;5.37;;
20497;SDS011;10407;53.238;10.448;2022-12-20T14:24:04;8.90;;;5.80;;
20497;SDS011;10407;53.238;10.448;2022-12-20T14:26:37;8.90;;;4.73;;
20497;SDS011;10407;53.238;10.448;2022-12-20T14:29:09;10.90;;;5.40;;
20497;SDS011;10407;53.238;10.448;2022-12-20T14:31:43;11.13;;;5.93;;
20497;SDS011;10407;53.238;10.448;2022-12-20T14:34:14;10.13;;;6.00;;
20497;SDS011;10407;53.238;10.448;2022-12-20T14:36:43;10.00;;;5.80;;
20497;SDS011;10407;53.238;10.448;2022-12-20T14:39:22;7.83;;;5.43;;
20497;SDS011;10407;53.238;10.448;2022-12-20T14:41:59;9.77;;;5.80;;
20497;SDS011;10407;53.238;10.448;2022-12-20T14:44:29;10.07;;;5.30;;
20497;SDS011;10407;53.238;10.448;2022-12-20T14:46:58;9.33;;;5.80;;
20497;SDS011;10407;53.238;10.448;2022-12-20T14:49:46;9.63;;;5.90;;
20497;SDS011;10407;53.238;10.448;2022-12-20T14:52:37;6.83;;;5.03;;
20497;SDS011;10407;53.238;10.448;2022-12-20T14:54:56;16.53;;;6.30;;
20497;SDS011;10407;53.238;10.448;2022-12-20T14:57:25;9.23;;;4.73;;
20497;SDS011;10407;53.238;10.448;2022-12-20T15:02:35;7.23;;;4.80;;
20497;SDS011;10407;53.238;10.448;2022-12-20T15:05:08;10.07;;;5.23;;
20497;SDS011;10407;53.238;10.448;2022-12-20T15:07:54;10.23;;;5.60;;
20497;SDS011;10407;53.238;10.448;2022-12-20T15:10:21;11.93;;;6.40;;
20497;SDS011;10407;53.238;10.448;2022-12-20T15:12:49;10.30;;;5.73;;
20497;SDS011;10407;53.238;10.448;2022-12-20T15:15:16;35.93;;;15.63;;
20497;SDS011;10407;53.238;10.448;2022-12-20T15:17:45;12.47;;;6.30;;
20497;SDS011;10407;53.238;10.448;2022-12-20T15:20:13;10.67;;;5.87;;
20497;SDS011;10407;53.238;10.448;2022-12-20T15:22:41;10.80;;;6.03;;
20497;SDS011;10407;53.238;10.448;2022-12-20T15:25:15;10.33;;;5.30;;
20497;SDS011;10407;53.238;10.448;2022-12-20T15:27:43;8.87;;;5.27;;
20497;SDS011;10407;53.238;10.448;2022-12-20T15:30:11;11.70;;;5.50;;
20497;SDS011;10407;53.238;10.448;2022-12-20T15:32:40;7.80;;;5.67;;
20497;SDS011;10407;53.238;10.448;2022-12-20T15:35:14;8.47;;;5.97;;
20497;SDS011;10407;53.238;10.448;2022-12-20T15:37:42;9.53;;;4.73;;
20497;SDS011;10407;53.238;10.448;2022-12-20T15:40:12;10.43;;;6.00;;
20497;SDS011;10407;53.238;10.448;2022-12-20T15:42:41;7.07;;;4.97;;
20497;SDS011;10407;53.238;10.448;2022-12-20T15:45:12;9.07;;;4.97;;
20497;SDS011;10407;53.238;10.448;2022-12-20T15:47:40;8.97;;;5.90;;
20497;SDS011;10407;53.238;10.448;2022-12-20T15:50:09;13.63;;;6.13;;
20497;SDS011;10407;53.238;10.448;2022-12-20T15:52:38;9.57;;;5.40;;
20497;SDS011;10407;53.238;10.448;2022-12-20T15:55:08;6.30;;;4.50;;
20497;SDS011;10407;53.238;10.448;2022-12-20T15:57:36;11.47;;;5.70;;
20497;SDS011;10407;53.238;10.448;2022-12-20T16:00:04;6.83;;;5.27;;
20497;SDS011;10407;53.238;10.448;2022-12-20T16:02:35;8.80;;;5.43;;
20497;SDS011;10407;53.238;10.448;2022-12-20T16:05:02;7.07;;;4.80;;
20497;SDS011;10407;53.238;10.448;2022-12-20T16:07:30;9.47;;;5.73;;
20497;SDS011;10407;53.238;10.448;2022-12-20T16:09:57;7.83;;;4.97;;
20497;SDS011;10407;53.238;10.448;2022-12-20T16:12:31;12.40;;;5.30;;
20497;SDS011;10407;53.238;10.448;2022-12-20T16:15:01;7.33;;;5.00;;